Time;durP1;ratioP1;P1;durP2;ratioP2;P2;SDS_P1;SDS_P2;PMS_P1;PMS_P2;Temp;Humidity;BMP_temperature;BMP_pressure;BME280_temperature;BME280_humidity;BME280_pressure;Samples;Min_cycle;Max_cycle;Signal;HPM_P1;HPM_P2
2021/05/14 00:01:15;;;;;;;;;;;;;;;;;;5011302;28;20025;-80
2021/05/14 00:03:42;;;;;;;5.15;1.15;;;;;;;;;;5012074;28;19913;-80
2021/05/14 00:06:10;;;;;;;6.55;1.00;;;;;;;;;;5008859;28;20424;-81
2021/05/14 00:08:37;;;;;;;6.90;1.13;;;;;;;;;;5011728;28;20691;-81
2021/05/14 00:11:04;;;;;;;6.80;1.52;;;;;;;;;;5004655;28;20025;-81
2021/05/14 00:13:31;;;;;;;11.52;1.40;;;;;;;;;;5005051;28;20099;-81
2021/05/14 00:15:59;;;;;;;6.47;1.40;;;;;;;;;;5004436;28;20029;-80
2021/05/14 00:18:27;;;;;;;9.18;1.48;;;;;;;;;;5006195;28;20048;-81
2021/05/14 00:20:56;;;;;;;6.18;1.17;;;;;;;;;;4989778;28;20208;-81
2021/05/14 00:23:24;;;;;;;7.20;1.10;;;;;;;;;;5010963;28;20083;-81
2021/05/14 00:25:52;;;;;;;8.27;1.65;;;;;;;;;;5008042;28;20042;-82
2021/05/14 00:28:20;;;;;;;5.90;1.13;;;;;;;;;;5013298;28;20091;-81
2021/05/14 00:30:48;;;;;;;8.55;1.45;;;;;;;;;;5004814;28;20041;-80
2021/05/14 00:33:15;;;;;;;8.13;1.20;;;;;;;;;;5004766;28;20120;-81
2021/05/14 00:35:42;;;;;;;7.30;1.17;;;;;;;;;;5012587;28;20037;-80
2021/05/14 00:38:09;;;;;;;7.75;1.30;;;;;;;;;;5008025;28;20022;-81
2021/05/14 00:40:35;;;;;;;7.68;1.48;;;;;;;;;;5011603;28;20104;-79
2021/05/14 00:43:02;;;;;;;8.75;1.73;;;;;;;;;;5007838;28;20021;-82
2021/05/14 00:45:29;;;;;;;6.25;1.42;;;;;;;;;;5011577;28;20056;-80
2021/05/14 00:47:55;;;;;;;9.60;1.38;;;;;;;;;;4999983;28;20033;-80
2021/05/14 00:50:21;;;;;;;;;;;;;;;;;;5006734;28;20034;-80
2021/05/14 00:52:48;;;;;;;7.03;1.40;;;;;;;;;;5003144;28;19936;-81
2021/05/14 00:55:15;;;;;;;7.32;1.35;;;;;;;;;;5009921;28;20036;-80
2021/05/14 00:57:43;;;;;;;;;;;;;;;;;;5007336;28;20486;-81
2021/05/14 01:00:12;;;;;;;6.43;1.17;;;;;;;;;;5002987;28;20003;-80
2021/05/14 01:02:39;;;;;;;8.13;1.23;;;;;;;;;;5005280;28;20029;-80
2021/05/14 01:05:05;;;;;;;7.38;1.40;;;;;;;;;;5004025;28;21219;-81
2021/05/14 01:07:36;;;;;;;8.93;1.77;;;;;;;;;;5008620;28;20018;-81
2021/05/14 01:10:03;;;;;;;8.15;1.25;;;;;;;;;;4969893;28;20064;-79
2021/05/14 01:12:30;;;;;;;6.63;1.30;;;;;;;;;;5007151;28;20064;-79
2021/05/14 01:14:58;;;;;;;9.02;1.38;;;;;;;;;;5003656;28;20344;-82
2021/05/14 01:17:25;;;;;;;8.27;1.40;;;;;;;;;;5013869;28;20021;-80
2021/05/14 01:19:57;;;;;;;7.53;1.30;;;;;;;;;;5008013;28;20037;-80
2021/05/14 01:22:27;;;;;;;7.63;1.33;;;;;;;;;;5004623;28;20153;-79
2021/05/14 01:24:55;;;;;;;7.85;1.38;;;;;;;;;;4999670;28;20355;-80
2021/05/14 01:27:22;;;;;;;7.85;1.60;;;;;;;;;;5008604;28;20473;-82
2021/05/14 01:29:49;;;;;;;6.35;1.13;;;;;;;;;;5003882;28;20036;-80
2021/05/14 01:32:16;;;;;;;9.23;1.45;;;;;;;;;;5006219;28;20038;-79
2021/05/14 01:34:43;;;;;;;7.65;1.10;;;;;;;;;;5005569;28;20029;-80
2021/05/14 01:37:09;;;;;;;8.60;1.55;;;;;;;;;;5003558;28;20037;-79
2021/05/14 01:39:36;;;;;;;;;;;;;;;;;;5006796;28;20159;-80
2021/05/14 01:42:03;;;;;;;9.20;1.70;;;;;;;;;;5003753;28;19913;-80
2021/05/14 01:44:30;;;;;;;11.85;1.58;;;;;;;;;;5001300;28;20029;-80
2021/05/14 01:46:58;;;;;;;11.70;1.38;;;;;;;;;;5003795;28;20116;-80
2021/05/14 01:49:25;;;;;;;7.38;1.10;;;;;;;;;;5006044;28;20071;-80
2021/05/14 01:51:52;;;;;;;7.70;1.30;;;;;;;;;;5000651;28;20024;-80
2021/05/14 01:54:18;;;;;;;9.13;1.45;;;;;;;;;;5008852;28;20070;-80
2021/05/14 01:56:47;;;;;;;9.05;1.70;;;;;;;;;;5003823;28;20051;-80
2021/05/14 01:59:18;;;;;;;17.73;9.27;;;;;;;;;;5014748;28;20842;-79
2021/05/14 02:01:45;;;;;;;19.02;10.02;;;;;;;;;;4999481;28;20029;-80
2021/05/14 02:04:13;;;;;;;21.10;11.10;;;;;;;;;;5009726;28;20071;-80
2021/05/14 02:06:40;;;;;;;18.60;9.23;;;;;;;;;;5003151;28;20045;-79
2021/05/14 02:09:06;;;;;;;18.73;4.30;;;;;;;;;;5005061;28;20140;-80
2021/05/14 02:11:34;;;;;;;9.57;2.60;;;;;;;;;;5006371;28;20033;-80
2021/05/14 02:14:00;;;;;;;11.70;2.72;;;;;;;;;;5001092;28;20036;-79
2021/05/14 02:16:28;;;;;;;10.80;2.40;;;;;;;;;;5014456;28;20021;-79
2021/05/14 02:18:54;;;;;;;9.75;1.77;;;;;;;;;;5005981;28;20121;-81
2021/05/14 02:21:21;;;;;;;;;;;;;;;;;;5008388;28;20034;-80
2021/05/14 02:23:49;;;;;;;11.48;2.30;;;;;;;;;;5019582;28;19924;-80
2021/05/14 02:26:15;;;;;;;10.32;1.83;;;;;;;;;;5010835;28;20533;-80
2021/05/14 02:28:42;;;;;;;7.88;1.70;;;;;;;;;;5006802;28;20036;-80
2021/05/14 02:31:09;;;;;;;11.73;2.28;;;;;;;;;;5019309;28;20107;-80
2021/05/14 02:33:40;;;;;;;8.88;1.80;;;;;;;;;;5009762;28;20022;-80
2021/05/14 02:36:06;;;;;;;9.85;2.20;;;;;;;;;;5004965;28;20879;-80
2021/05/14 02:38:33;;;;;;;10.30;1.80;;;;;;;;;;5008718;28;20056;-80
2021/05/14 02:40:59;;;;;;;13.25;1.90;;;;;;;;;;5006666;28;20744;-80
2021/05/14 02:43:27;;;;;;;8.63;1.67;;;;;;;;;;5012604;28;20033;-79
2021/05/14 02:45:54;;;;;;;8.50;1.70;;;;;;;;;;5012627;28;20031;-80
2021/05/14 02:48:22;;;;;;;10.32;1.60;;;;;;;;;;5010170;28;20564;-80
2021/05/14 02:50:48;;;;;;;14.93;1.85;;;;;;;;;;5007928;28;20042;-80
2021/05/14 02:53:15;;;;;;;10.35;1.75;;;;;;;;;;5007092;28;20036;-79
2021/05/14 02:55:41;;;;;;;;;;;;;;;;;;5009060;28;20623;-79
2021/05/14 02:58:07;;;;;;;10.70;1.60;;;;;;;;;;5004225;28;19916;-79
2021/05/14 03:00:34;;;;;;;;;;;;;;;;;;5011664;28;20117;-80
2021/05/14 03:03:00;;;;;;;11.23;2.20;;;;;;;;;;5003184;28;20800;-80
2021/05/14 03:05:26;;;;;;;;;;;;;;;;;;5010070;28;20029;-79
2021/05/14 03:07:52;;;;;;;11.48;1.80;;;;;;;;;;5007629;28;19913;-80
2021/05/14 03:10:20;;;;;;;13.50;2.05;;;;;;;;;;5007822;28;20091;-80
2021/05/14 03:12:49;;;;;;;10.38;2.17;;;;;;;;;;5009338;28;20108;-80
2021/05/14 03:15:16;;;;;;;8.75;1.50;;;;;;;;;;5009952;28;20452;-81
2021/05/14 03:17:42;;;;;;;7.00;1.67;;;;;;;;;;5008890;28;20103;-80
2021/05/14 03:20:11;;;;;;;;;;;;;;;;;;5002378;28;20033;-79
2021/05/14 03:22:38;;;;;;;11.82;2.05;;;;;;;;;;5013115;28;20392;-79
2021/05/14 03:25:05;;;;;;;9.57;1.65;;;;;;;;;;5006101;28;20474;-80
2021/05/14 03:27:31;;;;;;;7.10;1.80;;;;;;;;;;5016504;28;20247;-80
2021/05/14 03:29:58;;;;;;;;;;;;;;;;;;5010570;28;20025;-80
2021/05/14 03:32:27;;;;;;;;;;;;;;;;;;5014627;28;19916;-80
2021/05/14 03:34:56;;;;;;;7.68;1.60;;;;;;;;;;5006893;28;20048;-80
2021/05/14 03:37:22;;;;;;;8.73;1.90;;;;;;;;;;5010502;28;20037;-80
2021/05/14 03:39:54;;;;;;;9.45;1.75;;;;;;;;;;5007218;28;20087;-81
2021/05/14 03:42:24;;;;;;;17.30;2.45;;;;;;;;;;5009346;28;20109;-79
2021/05/14 03:44:52;;;;;;;10.48;2.00;;;;;;;;;;5005201;28;20030;-80
2021/05/14 03:47:19;;;;;;;10.57;1.50;;;;;;;;;;5004471;28;20033;-80
2021/05/14 03:49:46;;;;;;;11.98;1.83;;;;;;;;;;5011002;28;20021;-80
2021/05/14 03:52:13;;;;;;;9.57;2.00;;;;;;;;;;5011466;28;20045;-80
2021/05/14 03:54:43;;;;;;;11.48;1.85;;;;;;;;;;5010160;28;20052;-79
2021/05/14 03:57:13;;;;;;;8.32;1.88;;;;;;;;;;5005642;28;20049;-80
2021/05/14 03:59:40;;;;;;;9.60;1.60;;;;;;;;;;5012574;28;20124;-79
2021/05/14 04:02:09;;;;;;;;;;;;;;;;;;5006495;28;20033;-78
2021/05/14 04:04:37;;;;;;;11.20;1.73;;;;;;;;;;5011352;28;19920;-79
2021/05/14 04:07:05;;;;;;;12.65;1.98;;;;;;;;;;5008660;28;20037;-80
2021/05/14 04:09:35;;;;;;;10.85;1.73;;;;;;;;;;5012758;28;20037;-80
2021/05/14 04:14:58;;;;;;;12.93;1.90;;;;;;;;;;5006299;28;20362;-79
2021/05/14 04:17:27;;;;;;;9.20;1.98;;;;;;;;;;5006485;28;20060;-79
2021/05/14 04:19:55;;;;;;;12.07;1.83;;;;;;;;;;5016657;28;20056;-80
2021/05/14 04:22:22;;;;;;;11.95;2.40;;;;;;;;;;5010368;28;20025;-81
2021/05/14 04:24:50;;;;;;;10.00;2.03;;;;;;;;;;5001098;28;20036;-80
2021/05/14 04:27:19;;;;;;;12.27;1.85;;;;;;;;;;5010460;28;20860;-79
2021/05/14 04:29:45;;;;;;;14.48;2.50;;;;;;;;;;4989869;28;20120;-80
2021/05/14 04:32:13;;;;;;;8.93;1.83;;;;;;;;;;5001879;28;20037;-79
2021/05/14 04:34:40;;;;;;;8.10;1.92;;;;;;;;;;5005033;28;20099;-80
2021/05/14 04:37:08;;;;;;;9.05;1.90;;;;;;;;;;5004444;28;20037;-80
2021/05/14 04:39:35;;;;;;;11.98;2.00;;;;;;;;;;5008281;28;20026;-80
2021/05/14 04:42:04;;;;;;;11.60;2.28;;;;;;;;;;5002038;28;20044;-80
2021/05/14 04:44:31;;;;;;;12.23;2.30;;;;;;;;;;5005888;28;20021;-80
2021/05/14 04:46:59;;;;;;;10.82;1.77;;;;;;;;;;5003936;28;20087;-81
2021/05/14 04:49:26;;;;;;;8.85;2.00;;;;;;;;;;5005223;28;20052;-80
2021/05/14 04:51:54;;;;;;;11.98;1.95;;;;;;;;;;4999130;28;20693;-80
2021/05/14 04:54:21;;;;;;;10.88;2.10;;;;;;;;;;5004615;28;20036;-80
2021/05/14 04:56:51;;;;;;;12.80;2.40;;;;;;;;;;5001600;28;20037;-78
2021/05/14 04:59:18;;;;;;;10.68;2.22;;;;;;;;;;5009407;28;20087;-80
2021/05/14 05:01:45;;;;;;;12.25;1.98;;;;;;;;;;5004420;28;20056;-80
2021/05/14 05:04:12;;;;;;;10.88;1.90;;;;;;;;;;5004680;28;20033;-79
2021/05/14 05:06:40;;;;;;;;;;;;;;;;;;5007844;28;20029;-80
2021/05/14 05:09:08;;;;;;;13.20;2.30;;;;;;;;;;5004488;28;20855;-81
2021/05/14 05:11:37;;;;;;;13.68;2.00;;;;;;;;;;5002738;28;20053;-80
2021/05/14 05:14:04;;;;;;;10.82;2.10;;;;;;;;;;5004533;28;20033;-81
2021/05/14 05:16:32;;;;;;;11.90;1.95;;;;;;;;;;5006639;28;20029;-81
2021/05/14 05:19:03;;;;;;;10.35;1.80;;;;;;;;;;5001108;28;20049;-81
2021/05/14 05:21:30;;;;;;;9.05;2.08;;;;;;;;;;5006080;28;20029;-81
2021/05/14 05:23:58;;;;;;;13.23;2.33;;;;;;;;;;5000562;28;20141;-81
2021/05/14 05:26:26;;;;;;;11.40;1.77;;;;;;;;;;5007245;28;20026;-80
2021/05/14 05:28:52;;;;;;;11.52;1.75;;;;;;;;;;5003795;28;20095;-81
2021/05/14 05:31:22;;;;;;;11.88;2.20;;;;;;;;;;5007575;28;20033;-80
2021/05/14 05:33:49;;;;;;;6.55;1.25;;;;;;;;;;5002560;28;20546;-81
2021/05/14 05:36:18;;;;;;;12.48;1.58;;;;;;;;;;4991443;28;20585;-81
2021/05/14 05:38:46;;;;;;;10.32;1.80;;;;;;;;;;5009146;28;20082;-80
2021/05/14 05:41:16;;;;;;;9.35;1.65;;;;;;;;;;5013246;28;20029;-82
2021/05/14 05:43:44;;;;;;;10.75;1.73;;;;;;;;;;5007375;28;20029;-80
2021/05/14 05:46:11;;;;;;;8.13;1.42;;;;;;;;;;4990015;28;20502;-81
2021/05/14 05:48:39;;;;;;;10.00;1.40;;;;;;;;;;5012181;28;20057;-80
2021/05/14 05:51:09;;;;;;;7.88;1.20;;;;;;;;;;5007938;28;21525;-82
2021/05/14 05:53:35;;;;;;;10.77;1.73;;;;;;;;;;5009057;28;20061;-82
2021/05/14 05:56:02;;;;;;;7.10;1.40;;;;;;;;;;5014857;28;20057;-80
2021/05/14 05:58:33;;;;;;;8.35;1.17;;;;;;;;;;5012171;28;20041;-80
2021/05/14 06:01:00;;;;;;;6.50;1.20;;;;;;;;;;5009311;28;20042;-82
2021/05/14 06:03:28;;;;;;;8.05;1.40;;;;;;;;;;5011432;28;20025;-80
2021/05/14 06:05:56;;;;;;;8.02;1.10;;;;;;;;;;5008898;28;20022;-80
2021/05/14 06:08:24;;;;;;;8.98;1.02;;;;;;;;;;5010131;28;20025;-81
2021/05/14 06:10:52;;;;;;;9.82;1.13;;;;;;;;;;5005623;28;20453;-81
2021/05/14 06:13:20;;;;;;;7.55;1.20;;;;;;;;;;5008659;28;20134;-79
2021/05/14 06:15:47;;;;;;;7.10;1.25;;;;;;;;;;5004389;28;20476;-80
2021/05/14 06:18:16;;;;;;;5.75;0.90;;;;;;;;;;5010052;28;20068;-80
2021/05/14 06:20:45;;;;;;;7.03;1.00;;;;;;;;;;5008875;28;20033;-80
2021/05/14 06:23:13;;;;;;;6.43;1.20;;;;;;;;;;5006501;28;20033;-80
2021/05/14 06:25:40;;;;;;;6.57;1.10;;;;;;;;;;5014483;28;20024;-81
2021/05/14 06:28:09;;;;;;;6.03;1.17;;;;;;;;;;5006443;28;20875;-86
2021/05/14 06:30:37;;;;;;;7.93;0.80;;;;;;;;;;5015964;28;20697;-86
2021/05/14 06:33:04;;;;;;;7.57;1.30;;;;;;;;;;5014684;28;20638;-86
2021/05/14 06:35:32;;;;;;;5.18;0.93;;;;;;;;;;5029974;28;20129;-85
2021/05/14 06:38:04;;;;;;;7.00;1.10;;;;;;;;;;5012632;28;20041;-82
2021/05/14 06:40:31;;;;;;;7.00;1.05;;;;;;;;;;4998936;28;20042;-84
2021/05/14 06:42:57;;;;;;;10.13;1.05;;;;;;;;;;5012144;28;20075;-84
2021/05/14 06:45:24;;;;;;;5.43;1.02;;;;;;;;;;5011704;28;20030;-84
2021/05/14 06:47:52;;;;;;;4.38;0.90;;;;;;;;;;5011802;28;20060;-84
2021/05/14 06:50:21;;;;;;;12.65;1.10;;;;;;;;;;5036690;28;20095;-85
2021/05/14 06:52:50;;;;;;;7.32;1.00;;;;;;;;;;5034921;28;20031;-84
2021/05/14 06:55:18;;;;;;;8.57;1.73;;;;;;;;;;5035048;28;20033;-84
2021/05/14 06:57:44;;;;;;;5.80;1.10;;;;;;;;;;5010742;28;20065;-83
2021/05/14 07:00:12;;;;;;;5.90;1.13;;;;;;;;;;5013385;28;20144;-84
2021/05/14 07:02:39;;;;;;;11.57;1.50;;;;;;;;;;5018845;28;20029;-84
2021/05/14 07:05:09;;;;;;;7.30;1.15;;;;;;;;;;5013692;28;21283;-83
2021/05/14 07:07:37;;;;;;;6.82;1.60;;;;;;;;;;5035649;28;20967;-83
2021/05/14 07:10:05;;;;;;;5.80;1.60;;;;;;;;;;5013036;28;20029;-84
2021/05/14 07:12:34;;;;;;;4.97;1.33;;;;;;;;;;5000523;28;20048;-84
2021/05/14 07:15:03;;;;;;;4.78;1.10;;;;;;;;;;5026106;28;20038;-84
2021/05/14 07:17:31;;;;;;;6.40;0.88;;;;;;;;;;5014513;28;20057;-83
2021/05/14 07:20:00;;;;;;;5.13;0.82;;;;;;;;;;5011498;28;20460;-84
2021/05/14 07:22:27;;;;;;;5.55;0.80;;;;;;;;;;5016832;28;20454;-83
2021/05/14 07:24:56;;;;;;;8.95;0.90;;;;;;;;;;5010124;28;20020;-83
2021/05/14 07:27:22;;;;;;;9.60;0.95;;;;;;;;;;4997832;28;20065;-83
2021/05/14 07:29:50;;;;;;;6.43;1.02;;;;;;;;;;5010394;28;20034;-86
2021/05/14 07:32:17;;;;;;;9.45;1.38;;;;;;;;;;5014345;28;20052;-83
2021/05/14 07:34:45;;;;;;;10.70;1.10;;;;;;;;;;5013239;28;20024;-82
2021/05/14 07:37:12;;;;;;;7.60;1.40;;;;;;;;;;5007951;28;20146;-82
2021/05/14 07:39:40;;;;;;;3.65;0.65;;;;;;;;;;5013402;28;20029;-82
2021/05/14 07:42:08;;;;;;;3.83;0.90;;;;;;;;;;5005852;28;21148;-82
2021/05/14 07:44:36;;;;;;;3.55;0.60;;;;;;;;;;5009719;28;20593;-82
2021/05/14 07:47:03;;;;;;;5.00;0.90;;;;;;;;;;5006896;28;20121;-83
2021/05/14 07:49:31;;;;;;;3.28;0.90;;;;;;;;;;5007067;28;20037;-82
2021/05/14 07:51:58;;;;;;;5.47;0.90;;;;;;;;;;5002171;28;20726;-81
2021/05/14 07:54:25;;;;;;;5.43;0.98;;;;;;;;;;5008695;28;20029;-81
2021/05/14 07:56:55;;;;;;;5.03;0.80;;;;;;;;;;5006178;28;20091;-82
2021/05/14 07:59:24;;;;;;;4.88;0.77;;;;;;;;;;5006115;28;20063;-81
2021/05/14 08:01:51;;;;;;;4.85;1.20;;;;;;;;;;5005934;28;20862;-82
2021/05/14 08:04:18;;;;;;;3.03;0.65;;;;;;;;;;5008387;28;20029;-80
2021/05/14 08:06:49;;;;;;;3.95;0.80;;;;;;;;;;5011262;28;20424;-81
2021/05/14 08:09:23;;;;;;;5.10;0.75;;;;;;;;;;5018057;28;20043;-83
2021/05/14 08:11:50;;;;;;;3.30;0.70;;;;;;;;;;4990453;28;20034;-82
2021/05/14 08:14:18;;;;;;;6.35;0.90;;;;;;;;;;5010331;28;20029;-81
2021/05/14 08:16:45;;;;;;;3.95;0.85;;;;;;;;;;5020335;28;20033;-83
2021/05/14 08:19:15;;;;;;;6.35;1.10;;;;;;;;;;5006240;28;20037;-82
2021/05/14 08:22:03;;;;;;;5.10;0.90;;;;;;;;;;5019405;28;20103;-80
2021/05/14 08:24:32;;;;;;;3.67;0.65;;;;;;;;;;4968109;28;20722;-81
2021/05/14 08:26:59;;;;;;;4.32;0.75;;;;;;;;;;4960382;28;20129;-80
2021/05/14 08:29:26;;;;;;;3.58;0.68;;;;;;;;;;4964890;28;20035;-80
2021/05/14 08:31:56;;;;;;;4.97;1.45;;;;;;;;;;4961360;28;21087;-80
2021/05/14 08:34:25;;;;;;;3.58;0.57;;;;;;;;;;4966906;28;20062;-83
2021/05/14 08:36:54;;;;;;;1.95;0.50;;;;;;;;;;4949576;28;20041;-82
2021/05/14 08:39:23;;;;;;;2.22;0.55;;;;;;;;;;4952185;28;20039;-82
2021/05/14 08:41:51;;;;;;;4.20;0.30;;;;;;;;;;4947725;28;20030;-81
2021/05/14 08:44:18;;;;;;;2.85;0.30;;;;;;;;;;4952232;28;20649;-84
2021/05/14 08:46:45;;;;;;;2.38;0.40;;;;;;;;;;4954324;28;20042;-82
2021/05/14 08:49:12;;;;;;;1.33;0.50;;;;;;;;;;4952787;28;20049;-85
2021/05/14 08:51:42;;;;;;;4.10;0.90;;;;;;;;;;4970608;28;20045;-84
2021/05/14 08:54:10;;;;;;;2.30;0.40;;;;;;;;;;4968627;28;20026;-84
2021/05/14 08:56:39;;;;;;;0.60;0.30;;;;;;;;;;5009696;28;20481;-85
2021/05/14 08:59:06;;;;;;;1.35;0.40;;;;;;;;;;5022412;28;22172;-87
2021/05/14 09:01:32;;;;;;;1.15;0.30;;;;;;;;;;5011727;28;20041;-86
2021/05/14 09:04:11;;;;;;;1.00;0.30;;;;;;;;;;5010445;28;20029;-87
2021/05/14 09:06:41;;;;;;;1.65;0.40;;;;;;;;;;5017563;28;20034;-89
2021/05/14 09:09:09;;;;;;;0.82;0.20;;;;;;;;;;5009970;28;20025;-85
2021/05/14 09:11:43;;;;;;;3.10;0.52;;;;;;;;;;5009905;28;20033;-85
2021/05/14 09:14:30;;;;;;;1.33;0.50;;;;;;;;;;5008685;28;20532;-86
2021/05/14 09:17:13;;;;;;;2.25;0.50;;;;;;;;;;5008705;28;20278;-85
2021/05/14 09:19:41;;;;;;;2.10;0.47;;;;;;;;;;5022368;28;20187;-84
2021/05/14 09:22:08;;;;;;;3.28;0.50;;;;;;;;;;5010417;28;22090;-81
2021/05/14 09:24:35;;;;;;;2.30;0.40;;;;;;;;;;5013943;28;20463;-86
2021/05/14 09:27:18;;;;;;;2.35;0.55;;;;;;;;;;5008644;28;20029;-83
2021/05/14 09:29:45;;;;;;;3.22;0.70;;;;;;;;;;5016905;28;20053;-84
2021/05/14 09:32:24;;;;;;;3.92;0.80;;;;;;;;;;5011947;28;20117;-81
2021/05/14 09:34:51;;;;;;;2.53;0.55;;;;;;;;;;5006814;28;20115;-84
2021/05/14 09:37:18;;;;;;;3.40;0.40;;;;;;;;;;5013283;28;20037;-82
2021/05/14 09:39:45;;;;;;;3.13;0.70;;;;;;;;;;5012778;28;20034;-84
2021/05/14 09:42:13;;;;;;;2.03;0.40;;;;;;;;;;5012339;28;20036;-84
2021/05/14 09:44:43;;;;;;;1.60;0.50;;;;;;;;;;5017632;28;20121;-83
2021/05/14 09:47:11;;;;;;;4.45;0.82;;;;;;;;;;5007924;28;20017;-85
2021/05/14 09:49:47;;;;;;;5.10;0.80;;;;;;;;;;5011191;28;20022;-84
2021/05/14 09:52:15;;;;;;;2.03;0.50;;;;;;;;;;5011351;28;20059;-84
2021/05/14 09:54:44;;;;;;;2.85;0.80;;;;;;;;;;5010853;28;20036;-85
2021/05/14 09:57:36;;;;;;;2.78;0.68;;;;;;;;;;5007572;28;20060;-83
2021/05/14 10:00:09;;;;;;;2.95;0.80;;;;;;;;;;5020379;28;20359;-83
2021/05/14 10:02:41;;;;;;;1.90;0.50;;;;;;;;;;4999563;28;20524;-84
2021/05/14 10:05:10;;;;;;;3.13;0.63;;;;;;;;;;5005923;28;20780;-81
2021/05/14 10:07:37;;;;;;;1.08;0.30;;;;;;;;;;5010696;28;20095;-84
2021/05/14 10:10:07;;;;;;;5.10;0.80;;;;;;;;;;5008112;28;20320;-80
2021/05/14 10:12:34;;;;;;;4.55;1.17;;;;;;;;;;5007634;28;20029;-81
2021/05/14 10:15:02;;;;;;;7.25;2.00;;;;;;;;;;5003109;28;20036;-80
2021/05/14 10:17:29;;;;;;;7.25;1.55;;;;;;;;;;5006853;28;20029;-86
2021/05/14 10:19:58;;;;;;;4.32;0.70;;;;;;;;;;5006247;28;20700;-84
2021/05/14 10:22:31;;;;;;;3.92;0.90;;;;;;;;;;5010353;28;20034;-83
2021/05/14 10:24:59;;;;;;;5.18;1.20;;;;;;;;;;5003813;28;20033;-82
2021/05/14 10:27:44;;;;;;;3.53;1.00;;;;;;;;;;5006717;28;20072;-84
2021/05/14 10:30:15;;;;;;;4.83;1.40;;;;;;;;;;5008952;28;20820;-83
2021/05/14 10:32:51;;;;;;;3.88;1.10;;;;;;;;;;5012388;28;20053;-83
2021/05/14 10:35:26;;;;;;;4.15;0.90;;;;;;;;;;5013038;28;20017;-83
2021/05/14 10:38:08;;;;;;;4.20;1.08;;;;;;;;;;5023802;28;20112;-84
2021/05/14 10:40:38;;;;;;;7.20;0.90;;;;;;;;;;5032387;28;20089;-83
2021/05/14 10:43:11;;;;;;;6.03;0.90;;;;;;;;;;5022239;28;20115;-82
2021/05/14 10:45:41;;;;;;;6.25;1.42;;;;;;;;;;5014697;28;20025;-84
2021/05/14 10:48:23;;;;;;;9.25;1.02;;;;;;;;;;5013638;28;20840;-84
2021/05/14 10:51:10;;;;;;;5.68;1.30;;;;;;;;;;5026703;28;20490;-82
2021/05/14 10:53:48;;;;;;;3.97;1.05;;;;;;;;;;5009840;28;20080;-84
2021/05/14 10:56:14;;;;;;;5.70;1.33;;;;;;;;;;5012643;28;20045;-85
2021/05/14 10:58:43;;;;;;;7.60;1.55;;;;;;;;;;5014691;28;20511;-84
2021/05/14 11:01:32;;;;;;;6.25;1.50;;;;;;;;;;5012514;28;20151;-84
2021/05/14 11:03:59;;;;;;;6.88;1.67;;;;;;;;;;4943020;28;20063;-84
2021/05/14 11:06:27;;;;;;;4.47;1.02;;;;;;;;;;4939704;28;20267;-85
2021/05/14 11:08:59;;;;;;;6.63;2.38;;;;;;;;;;4934061;28;20115;-86
2021/05/14 11:11:26;;;;;;;4.22;1.20;;;;;;;;;;4940352;28;20515;-85
2021/05/14 11:13:54;;;;;;;5.25;1.63;;;;;;;;;;4951691;28;20352;-84
2021/05/14 11:16:40;;;;;;;8.40;2.85;;;;;;;;;;4949680;28;20034;-82
2021/05/14 11:19:13;;;;;;;7.47;1.70;;;;;;;;;;4927284;28;21177;-80
2021/05/14 11:21:57;;;;;;;4.20;0.90;;;;;;;;;;4948969;28;20035;-82
2021/05/14 11:24:48;;;;;;;4.50;1.10;;;;;;;;;;4950883;28;20050;-82
2021/05/14 11:27:21;;;;;;;6.45;1.00;;;;;;;;;;4945391;28;20220;-82
2021/05/14 11:29:59;;;;;;;5.53;1.20;;;;;;;;;;4931745;28;21225;-80
2021/05/14 11:32:30;;;;;;;15.18;1.65;;;;;;;;;;4933635;28;20126;-80
2021/05/14 11:35:00;;;;;;;13.93;1.50;;;;;;;;;;4944117;28;20117;-82
2021/05/14 11:38:01;;;;;;;13.95;1.63;;;;;;;;;;4932338;28;20325;-81
2021/05/14 11:40:29;;;;;;;18.73;1.95;;;;;;;;;;4901760;28;20062;-81
2021/05/14 11:43:06;;;;;;;8.20;1.15;;;;;;;;;;4930389;28;20108;-82
2021/05/14 11:45:36;;;;;;;6.75;1.13;;;;;;;;;;4949573;28;20182;-80
2021/05/14 11:48:22;;;;;;;8.23;1.45;;;;;;;;;;4944113;28;20495;-83
2021/05/14 11:50:57;;;;;;;11.93;1.20;;;;;;;;;;4944753;28;20043;-82
2021/05/14 11:53:32;;;;;;;6.35;1.02;;;;;;;;;;4948961;28;20058;-80
2021/05/14 11:55:58;;;;;;;7.35;1.23;;;;;;;;;;4943734;28;20034;-82
2021/05/14 11:58:26;;;;;;;7.00;1.02;;;;;;;;;;4949767;28;20082;-80
2021/05/14 12:00:56;;;;;;;33.67;3.63;;;;;;;;;;4926811;28;20038;-80
2021/05/14 12:03:24;;;;;;;7.68;1.10;;;;;;;;;;4931403;28;20063;-81
2021/05/14 12:05:52;;;;;;;6.93;1.25;;;;;;;;;;4928246;28;20050;-82
2021/05/14 12:08:23;;;;;;;7.00;1.17;;;;;;;;;;4929212;28;20015;-82
2021/05/14 12:10:51;;;;;;;6.32;1.15;;;;;;;;;;4943113;28;20037;-81
2021/05/14 12:13:20;;;;;;;7.97;1.00;;;;;;;;;;4948695;28;20074;-80
2021/05/14 12:15:49;;;;;;;4.28;0.75;;;;;;;;;;4965847;28;20746;-81
2021/05/14 12:18:19;;;;;;;4.93;0.90;;;;;;;;;;5007290;28;20095;-81
2021/05/14 12:20:47;;;;;;;8.60;1.00;;;;;;;;;;5008784;28;20087;-81
2021/05/14 12:23:15;;;;;;;12.07;1.15;;;;;;;;;;5007449;28;20037;-80
2021/05/14 12:25:49;;;;;;;9.48;1.63;;;;;;;;;;5007187;28;20048;-80
2021/05/14 12:28:35;;;;;;;10.23;1.60;;;;;;;;;;5007376;28;20973;-80
2021/05/14 12:31:04;;;;;;;7.05;1.60;;;;;;;;;;5009734;28;20053;-82
2021/05/14 12:33:32;;;;;;;5.65;1.10;;;;;;;;;;5007642;28;20041;-82
2021/05/14 12:36:06;;;;;;;8.60;1.95;;;;;;;;;;5004049;28;20120;-81
2021/05/14 12:38:43;;;;;;;8.55;1.58;;;;;;;;;;5006449;28;20547;-81
2021/05/14 12:41:20;;;;;;;6.50;1.10;;;;;;;;;;5000807;28;20041;-81
2021/05/14 12:43:48;;;;;;;5.45;1.00;;;;;;;;;;5005615;28;20041;-81
2021/05/14 12:46:17;;;;;;;5.10;1.20;;;;;;;;;;4962056;28;20159;-81
2021/05/14 12:48:43;;;;;;;4.35;1.00;;;;;;;;;;4946988;28;20679;-81
2021/05/14 12:51:09;;;;;;;5.57;0.90;;;;;;;;;;4932607;28;20058;-80
2021/05/14 12:53:35;;;;;;;5.05;1.15;;;;;;;;;;4948272;28;20228;-80
2021/05/14 12:56:26;;;;;;;5.35;1.17;;;;;;;;;;4945391;28;20770;-83
2021/05/14 12:59:00;;;;;;;4.38;0.90;;;;;;;;;;4968007;28;20045;-85
2021/05/14 13:01:28;;;;;;;7.28;1.27;;;;;;;;;;4965869;28;20069;-84
2021/05/14 13:04:08;;;;;;;3.75;1.17;;;;;;;;;;4961166;28;20037;-86
2021/05/14 13:06:35;;;;;;;6.10;0.95;;;;;;;;;;4968065;28;20092;-86
2021/05/14 13:09:21;;;;;;;4.05;0.77;;;;;;;;;;4965568;28;20065;-86
2021/05/14 13:11:48;;;;;;;;;;;;;;;;;;4963522;28;20022;-85
2021/05/14 13:14:18;;;;;;;7.75;1.67;;;;;;;;;;4967256;28;19918;-86
2021/05/14 13:16:47;;;;;;;3.17;0.80;;;;;;;;;;4964530;28;20022;-85
2021/05/14 13:19:14;;;;;;;2.90;0.70;;;;;;;;;;4952478;28;20042;-86
2021/05/14 13:21:41;;;;;;;7.25;1.65;;;;;;;;;;4936094;28;20031;-85
2021/05/14 13:24:07;;;;;;;5.32;1.30;;;;;;;;;;4950168;28;20996;-85
2021/05/14 13:26:34;;;;;;;4.18;1.25;;;;;;;;;;4968268;28;20034;-86
2021/05/14 13:29:03;;;;;;;3.85;1.05;;;;;;;;;;4946592;28;20320;-85
2021/05/14 13:31:29;;;;;;;3.63;1.17;;;;;;;;;;5008334;28;20056;-83
2021/05/14 13:33:55;;;;;;;6.03;1.20;;;;;;;;;;5003997;28;20342;-85
2021/05/14 13:36:22;;;;;;;3.60;1.10;;;;;;;;;;5007060;28;20061;-83
2021/05/14 13:39:11;;;;;;;2.85;0.80;;;;;;;;;;5006200;28;20132;-87
2021/05/14 13:41:39;;;;;;;3.70;0.80;;;;;;;;;;5007914;28;20030;-84
2021/05/14 13:44:06;;;;;;;4.63;1.13;;;;;;;;;;5009603;28;20030;-85
2021/05/14 13:46:32;;;;;;;5.13;0.85;;;;;;;;;;5023048;28;20095;-82
2021/05/14 13:49:00;;;;;;;4.68;1.13;;;;;;;;;;5004015;28;20017;-84
2021/05/14 13:51:32;;;;;;;5.82;0.90;;;;;;;;;;5010264;28;20095;-83
2021/05/14 13:54:00;;;;;;;4.68;1.00;;;;;;;;;;4996805;28;20048;-83
2021/05/14 13:56:27;;;;;;;6.82;1.35;;;;;;;;;;5008075;28;20044;-83
2021/05/14 13:58:53;;;;;;;11.73;2.30;;;;;;;;;;5002335;28;20040;-83
2021/05/14 14:01:20;;;;;;;13.43;2.85;;;;;;;;;;5008790;28;20038;-84
2021/05/14 14:03:46;;;;;;;10.18;2.15;;;;;;;;;;5006957;28;20049;-82
2021/05/14 14:06:13;;;;;;;10.30;2.38;;;;;;;;;;5005953;28;20699;-84
2021/05/14 14:08:40;;;;;;;12.95;2.38;;;;;;;;;;5009730;28;20028;-84
2021/05/14 14:11:08;;;;;;;7.22;1.55;;;;;;;;;;5008991;28;20026;-83
2021/05/14 14:13:35;;;;;;;9.27;2.00;;;;;;;;;;5012149;28;20054;-84
2021/05/14 14:16:03;;;;;;;12.93;2.45;;;;;;;;;;5008470;28;20098;-82
2021/05/14 14:18:29;;;;;;;9.95;2.08;;;;;;;;;;5013999;28;20044;-84
2021/05/14 14:21:06;;;;;;;9.77;1.98;;;;;;;;;;5008462;28;20033;-83
2021/05/14 14:23:32;;;;;;;10.63;1.85;;;;;;;;;;5012519;28;20036;-83
2021/05/14 14:25:59;;;;;;;12.90;2.38;;;;;;;;;;5009548;28;20053;-83
2021/05/14 14:28:27;;;;;;;12.55;2.60;;;;;;;;;;5009595;28;20032;-83
2021/05/14 14:30:55;;;;;;;14.07;2.55;;;;;;;;;;5010604;28;20036;-82
2021/05/14 14:33:21;;;;;;;9.23;2.00;;;;;;;;;;5006393;28;20030;-83
2021/05/14 14:35:50;;;;;;;14.43;2.60;;;;;;;;;;5009247;28;20615;-83
2021/05/14 14:38:17;;;;;;;10.43;2.25;;;;;;;;;;5009893;28;20087;-83
2021/05/14 14:40:45;;;;;;;10.57;2.08;;;;;;;;;;5007537;28;20033;-82
2021/05/14 14:43:13;;;;;;;9.52;2.05;;;;;;;;;;5002024;28;20087;-80
2021/05/14 14:45:40;;;;;;;10.38;2.20;;;;;;;;;;5011827;28;20037;-84
2021/05/14 14:48:08;;;;;;;9.48;2.30;;;;;;;;;;5007471;28;20104;-83
2021/05/14 14:50:34;;;;;;;10.57;2.22;;;;;;;;;;5011247;28;20033;-83
2021/05/14 14:53:04;;;;;;;12.20;2.40;;;;;;;;;;5007618;28;20025;-84
2021/05/14 14:55:31;;;;;;;8.98;1.80;;;;;;;;;;5009770;28;20659;-84
2021/05/14 14:58:00;;;;;;;12.88;2.20;;;;;;;;;;5009267;28;20033;-84